createdAt,value
2023-03-10T00:00:12.647Z,4.28
2023-03-10T00:02:39.204Z,4.24
2023-03-10T00:05:05.976Z,4.22
2023-03-10T00:07:32.488Z,4.22
2023-03-10T00:09:59.006Z,4.20
2023-03-10T00:12:27.946Z,4.20
2023-03-10T00:14:55.028Z,4.22
2023-03-10T00:17:21.476Z,4.15
2023-03-10T00:19:47.918Z,4.14
2023-03-10T00:22:14.370Z,4.16
2023-03-10T00:24:40.811Z,4.18
2023-03-10T00:27:07.290Z,4.19
2023-03-10T00:29:33.735Z,4.17
2023-03-10T00:32:00.192Z,4.04
2023-03-10T00:34:26.717Z,3.99
2023-03-10T00:36:53.448Z,4.04
2023-03-10T00:39:19.877Z,4.05
2023-03-10T00:41:46.329Z,3.98
2023-03-10T00:44:13.258Z,3.95
2023-03-10T00:46:39.953Z,3.97
2023-03-10T00:49:10.492Z,3.98
2023-03-10T00:51:37.035Z,3.96
2023-03-10T00:54:03.614Z,3.90
2023-03-10T00:56:30.449Z,3.87
2023-03-10T00:58:58.048Z,3.85
2023-03-10T01:01:32.684Z,3.85
2023-03-10T01:04:00.242Z,3.87
2023-03-10T01:06:27.520Z,3.87
2023-03-10T01:08:55.136Z,3.83
2023-03-10T01:11:22.994Z,3.80
2023-03-10T01:13:49.907Z,3.80
2023-03-10T01:16:16.446Z,3.70
2023-03-10T01:18:43.409Z,3.64
2023-03-10T01:21:14.214Z,3.63
2023-03-10T01:23:40.644Z,3.67
2023-03-10T01:26:07.101Z,3.64
2023-03-10T01:28:33.548Z,3.61
2023-03-10T01:31:00.022Z,3.56
2023-03-10T01:33:26.840Z,3.60
2023-03-10T01:35:53.369Z,3.63
2023-03-10T01:38:19.824Z,3.64
2023-03-10T01:40:50.649Z,3.63
2023-03-10T01:43:20.195Z,3.61
2023-03-10T01:45:46.739Z,3.55
2023-03-10T01:48:13.856Z,3.53
2023-03-10T01:50:40.757Z,3.47
2023-03-10T01:53:07.344Z,3.40
2023-03-10T01:55:36.025Z,3.41
2023-03-10T01:58:04.927Z,3.42
2023-03-10T02:00:31.437Z,3.44
2023-03-10T02:03:15.064Z,3.44
2023-03-10T02:05:43.793Z,3.42
2023-03-10T02:08:11.012Z,3.43
2023-03-10T02:10:37.979Z,3.43
2023-03-10T02:13:04.541Z,3.31
2023-03-10T02:15:32.548Z,3.29
2023-03-10T02:18:00.091Z,3.27
2023-03-10T02:20:30.046Z,3.25
2023-03-10T02:22:56.528Z,3.23
2023-03-10T02:25:32.226Z,3.22
2023-03-10T02:27:59.085Z,3.15
2023-03-10T02:30:27.173Z,3.18
2023-03-10T02:32:55.957Z,3.19
2023-03-10T02:35:22.493Z,3.18
2023-03-10T02:37:50.939Z,3.19
2023-03-10T02:40:40.818Z,3.22
2023-03-10T02:43:09.017Z,3.22
2023-03-10T02:45:37.763Z,3.22
2023-03-10T02:48:04.667Z,3.19
2023-03-10T02:50:35.519Z,3.22
2023-03-10T02:53:06.625Z,3.24
2023-03-10T02:55:33.088Z,3.18
2023-03-10T02:58:02.497Z,3.15
2023-03-10T03:00:29.730Z,3.15
2023-03-10T03:02:56.197Z,3.13
2023-03-10T03:05:22.624Z,3.09
2023-03-10T03:07:49.090Z,3.06
2023-03-10T03:10:15.510Z,3.05
2023-03-10T03:12:41.947Z,3.06
2023-03-10T03:15:08.623Z,3.05
2023-03-10T03:17:35.052Z,3.05
2023-03-10T03:20:01.499Z,3.06
2023-03-10T03:22:27.935Z,3.04
2023-03-10T03:24:54.385Z,3.02
2023-03-10T03:27:20.848Z,2.97
2023-03-10T03:29:47.273Z,2.90
2023-03-10T03:32:13.758Z,2.89
2023-03-10T03:34:40.275Z,2.86
2023-03-10T03:37:06.724Z,2.84
2023-03-10T03:39:33.185Z,2.84
2023-03-10T03:41:59.715Z,2.84
2023-03-10T03:44:26.166Z,2.80
2023-03-10T03:46:52.623Z,2.71
2023-03-10T03:49:19.071Z,2.68
2023-03-10T03:51:45.767Z,2.76
2023-03-10T03:54:12.309Z,2.80
2023-03-10T03:56:38.818Z,2.77
2023-03-10T03:59:05.909Z,2.77
2023-03-10T04:01:32.338Z,2.76
2023-03-10T04:03:58.847Z,2.77
2023-03-10T04:06:25.407Z,2.79
2023-03-10T04:08:51.857Z,2.79
2023-03-10T04:11:18.391Z,2.74
2023-03-10T04:13:44.837Z,2.72
2023-03-10T04:16:11.445Z,2.71
2023-03-10T04:18:38.062Z,2.63
2023-03-10T04:21:04.556Z,2.63
2023-03-10T04:23:30.996Z,2.58
2023-03-10T04:25:57.523Z,2.59
2023-03-10T04:28:23.995Z,2.62
2023-03-10T04:30:51.299Z,2.62
2023-03-10T04:33:17.764Z,2.52
2023-03-10T04:35:47.521Z,2.46
2023-03-10T04:38:14.058Z,2.43
2023-03-10T04:40:40.513Z,2.41
2023-03-10T04:43:06.970Z,2.41
2023-03-10T04:45:33.407Z,2.41
2023-03-10T04:47:59.835Z,2.41
2023-03-10T04:50:26.355Z,2.46
2023-03-10T04:52:52.885Z,2.44
2023-03-10T04:55:19.384Z,2.38
2023-03-10T04:57:45.884Z,2.33
2023-03-10T05:00:13.147Z,2.33
2023-03-10T05:02:40.481Z,2.29
2023-03-10T05:05:07.167Z,2.30
2023-03-10T05:07:33.640Z,2.33
2023-03-10T05:10:00.291Z,2.31
2023-03-10T05:12:26.790Z,2.30
2023-03-10T05:14:53.247Z,2.25
2023-03-10T05:17:19.742Z,2.21
2023-03-10T05:19:46.198Z,2.15
2023-03-10T05:22:12.843Z,2.11
2023-03-10T05:24:39.706Z,2.09
2023-03-10T05:27:08.281Z,2.07
2023-03-10T05:29:34.864Z,2.04
2023-03-10T05:32:01.296Z,2.04
2023-03-10T05:34:27.815Z,2.05
2023-03-10T05:36:54.514Z,2.07
2023-03-10T05:39:20.955Z,2.08
2023-03-10T05:41:47.828Z,2.06
2023-03-10T05:44:14.297Z,2.02
2023-03-10T05:46:40.779Z,2.03
2023-03-10T05:49:07.272Z,2.04
2023-03-10T05:51:33.728Z,2.03
2023-03-10T05:54:00.209Z,2.04
2023-03-10T05:56:26.714Z,2.02
2023-03-10T05:58:53.157Z,1.95
2023-03-10T06:01:19.625Z,1.95
2023-03-10T06:03:46.217Z,1.95
2023-03-10T06:06:13.064Z,1.94
2023-03-10T06:08:39.491Z,1.97
2023-03-10T06:11:06.348Z,2.01
2023-03-10T06:13:32.863Z,2.04
2023-03-10T06:16:01.093Z,2.06
2023-03-10T06:18:28.418Z,2.04
2023-03-10T06:20:55.489Z,2.05
2023-03-10T06:23:22.627Z,1.99
2023-03-10T06:25:55.918Z,2.03
2023-03-10T06:28:22.404Z,2.07
2023-03-10T06:30:53.954Z,2.10
2023-03-10T06:33:20.388Z,2.11
2023-03-10T06:35:46.833Z,2.13
2023-03-10T06:38:14.213Z,2.18
2023-03-10T06:40:40.646Z,2.22
2023-03-10T06:43:07.108Z,2.25
2023-03-10T06:45:33.689Z,2.25
2023-03-10T06:48:00.176Z,2.29
2023-03-10T06:50:26.637Z,2.32
2023-03-10T06:52:53.408Z,2.31
2023-03-10T06:55:19.882Z,2.35
2023-03-10T06:57:46.336Z,2.37
2023-03-10T07:00:15.712Z,2.42
2023-03-10T07:02:42.698Z,2.48
2023-03-10T07:05:12.679Z,2.55
2023-03-10T07:07:39.263Z,2.58
2023-03-10T07:10:08.205Z,2.61
2023-03-10T07:12:34.920Z,2.68
2023-03-10T07:15:01.365Z,2.71
2023-03-10T07:17:27.818Z,2.78
2023-03-10T07:19:54.278Z,2.84
2023-03-10T07:22:20.717Z,2.90
2023-03-10T07:24:47.206Z,2.96
2023-03-10T07:27:13.644Z,3.05
2023-03-10T07:29:40.081Z,3.16
2023-03-10T07:32:06.592Z,3.28
2023-03-10T07:34:33.193Z,3.38
2023-03-10T07:36:59.616Z,3.48
2023-03-10T07:39:26.231Z,3.67
2023-03-10T07:41:52.718Z,3.78
2023-03-10T07:44:19.219Z,3.90
2023-03-10T07:46:45.653Z,4.14
2023-03-10T07:49:12.097Z,4.39
2023-03-10T07:51:38.542Z,4.97
2023-03-10T07:54:05.080Z,5.27
2023-03-10T07:56:31.603Z,5.64
2023-03-10T07:58:58.619Z,6.00
2023-03-10T08:01:26.306Z,6.34
2023-03-10T08:03:53.883Z,6.61
2023-03-10T08:06:22.877Z,6.79
2023-03-10T08:08:49.843Z,7.04
2023-03-10T08:11:16.451Z,7.38
2023-03-10T08:13:45.388Z,7.63
2023-03-10T08:16:11.979Z,7.77
2023-03-10T08:18:39.024Z,7.93
2023-03-10T08:21:05.811Z,8.29
2023-03-10T08:23:32.894Z,8.57
2023-03-10T08:26:03.081Z,8.78
2023-03-10T08:28:30.732Z,9.01
2023-03-10T08:31:04.815Z,9.11
2023-03-10T08:33:32.068Z,9.27
2023-03-10T08:36:06.548Z,9.36
2023-03-10T08:38:33.102Z,9.42
2023-03-10T08:41:08.012Z,9.53
2023-03-10T08:43:34.597Z,9.64
2023-03-10T08:46:01.207Z,9.69
2023-03-10T08:48:27.641Z,9.78
2023-03-10T08:50:54.132Z,9.90
2023-03-10T08:53:20.647Z,10.03
2023-03-10T08:55:47.065Z,10.09
2023-03-10T08:58:13.582Z,10.20
2023-03-10T09:00:40.006Z,10.26
2023-03-10T09:03:06.513Z,10.35
2023-03-10T09:05:33.174Z,10.47
2023-03-10T09:07:59.635Z,10.60
2023-03-10T09:10:27.243Z,10.73
2023-03-10T09:13:07.225Z,10.81
2023-03-10T09:15:41.336Z,10.91
2023-03-10T09:18:08.984Z,10.99
2023-03-10T09:20:36.252Z,11.15
2023-03-10T09:23:03.156Z,11.22
2023-03-10T09:25:29.745Z,11.28
2023-03-10T09:27:56.230Z,11.38
2023-03-10T09:30:23.099Z,11.49
2023-03-10T09:32:50.037Z,11.60
2023-03-10T09:35:16.596Z,11.65
2023-03-10T09:37:43.056Z,11.71
2023-03-10T09:40:14.917Z,11.77
2023-03-10T09:42:44.726Z,11.83
2023-03-10T09:45:25.746Z,11.90
2023-03-10T09:48:11.124Z,11.96
2023-03-10T09:50:37.565Z,12.06
2023-03-10T09:53:23.003Z,12.13
2023-03-10T09:55:49.443Z,12.20
2023-03-10T09:58:29.054Z,12.26
2023-03-10T10:00:55.552Z,12.30
2023-03-10T10:03:42.961Z,12.39
2023-03-10T10:06:18.259Z,12.44
2023-03-10T10:08:54.803Z,12.54
2023-03-10T10:11:28.406Z,12.64
2023-03-10T10:14:22.330Z,12.72
2023-03-10T10:16:52.806Z,12.75
2023-03-10T10:19:23.501Z,12.81
2023-03-10T10:22:00.137Z,12.85
2023-03-10T10:24:26.658Z,12.91
2023-03-10T10:26:53.151Z,12.94
2023-03-10T10:29:24.858Z,12.99
2023-03-10T10:32:10.152Z,13.00
2023-03-10T10:34:37.761Z,13.01
2023-03-10T10:37:20.352Z,13.03
2023-03-10T10:39:48.176Z,13.04
2023-03-10T10:42:14.693Z,13.12
2023-03-10T10:44:42.302Z,13.21
2023-03-10T10:47:18.632Z,13.24
2023-03-10T10:49:45.196Z,13.25
2023-03-10T10:52:25.722Z,13.31
2023-03-10T10:54:56.743Z,13.40
2023-03-10T10:57:24.480Z,13.47
2023-03-10T10:59:51.586Z,13.59
2023-03-10T11:02:23.136Z,13.70
2023-03-10T11:04:49.645Z,13.83
2023-03-10T11:07:19.590Z,13.89
2023-03-10T11:09:46.707Z,13.93
2023-03-10T11:12:30.029Z,14.00
2023-03-10T11:14:57.754Z,14.01
2023-03-10T11:17:24.327Z,14.02
2023-03-10T11:20:09.746Z,14.09
2023-03-10T11:22:42.297Z,14.15
2023-03-10T11:25:15.384Z,14.17
2023-03-10T11:27:41.804Z,14.08
2023-03-10T11:30:26.648Z,14.02
2023-03-10T11:33:02.613Z,14.06
2023-03-10T11:35:45.735Z,14.02
2023-03-10T11:38:42.439Z,14.03
2023-03-10T11:41:12.113Z,14.05
2023-03-10T11:43:41.334Z,13.98
2023-03-10T11:46:21.381Z,14.00
2023-03-10T11:48:53.103Z,14.00
2023-03-10T11:51:27.352Z,14.07
2023-03-10T11:53:55.839Z,14.20
2023-03-10T11:56:23.472Z,14.27
2023-03-10T11:58:52.792Z,14.31
2023-03-10T12:01:28.428Z,14.43
2023-03-10T12:04:02.228Z,14.48
2023-03-10T12:06:37.615Z,14.50
2023-03-10T12:09:07.007Z,14.65
2023-03-10T12:11:35.264Z,14.74
2023-03-10T12:14:02.346Z,14.80
2023-03-10T12:16:30.900Z,14.90
2023-03-10T12:18:57.829Z,14.88
2023-03-10T12:21:28.442Z,14.92
2023-03-10T12:23:56.693Z,14.97
2023-03-10T12:26:55.512Z,14.94
2023-03-10T12:29:22.038Z,14.92
2023-03-10T12:31:49.795Z,14.83
2023-03-10T12:34:22.293Z,14.79
2023-03-10T12:36:53.380Z,14.74
2023-03-10T12:39:26.184Z,14.68
2023-03-10T12:42:00.675Z,14.71
2023-03-10T12:44:46.109Z,14.81
2023-03-10T12:47:13.547Z,14.86
2023-03-10T12:49:49.884Z,14.95
2023-03-10T12:52:35.033Z,15.04
2023-03-10T12:55:01.511Z,15.17
2023-03-10T12:57:41.601Z,15.10
2023-03-10T13:00:20.248Z,14.94
2023-03-10T13:03:12.727Z,14.86
2023-03-10T13:05:42.903Z,14.97
2023-03-10T13:08:21.217Z,15.01
2023-03-10T13:10:51.821Z,15.13
2023-03-10T13:13:18.376Z,15.13
2023-03-10T13:15:56.747Z,15.19
2023-03-10T13:18:23.714Z,15.20
2023-03-10T13:20:50.626Z,15.29
2023-03-10T13:23:22.738Z,15.20
2023-03-10T13:25:56.658Z,15.03
2023-03-10T13:28:27.660Z,14.99
2023-03-10T13:31:09.254Z,14.90
2023-03-10T13:33:50.197Z,14.98
2023-03-10T13:36:22.224Z,14.99
2023-03-10T13:38:50.048Z,14.76
2023-03-10T13:41:16.745Z,14.57
2023-03-10T13:43:45.681Z,14.42
2023-03-10T13:46:17.195Z,14.45
2023-03-10T13:48:44.328Z,14.41
2023-03-10T13:51:17.330Z,14.35
2023-03-10T13:53:44.679Z,14.29
2023-03-10T13:56:33.793Z,14.25
2023-03-10T13:59:02.964Z,14.06
2023-03-10T14:01:31.617Z,14.04
2023-03-10T14:04:05.927Z,14.08
2023-03-10T14:06:32.816Z,14.10
2023-03-10T14:09:18.034Z,14.00
2023-03-10T14:11:46.985Z,13.87
2023-03-10T14:14:25.333Z,13.94
2023-03-10T14:16:56.988Z,13.91
2023-03-10T14:19:56.596Z,13.82
2023-03-10T14:22:23.044Z,13.85
2023-03-10T14:24:49.558Z,13.87
2023-03-10T14:27:16.390Z,13.87
2023-03-10T14:29:49.345Z,13.91
2023-03-10T14:32:16.369Z,13.63
2023-03-10T14:34:42.910Z,13.53
2023-03-10T14:37:09.444Z,13.44
2023-03-10T14:39:36.003Z,13.33
2023-03-10T14:42:03.385Z,13.32
2023-03-10T14:44:30.467Z,13.19
2023-03-10T14:46:57.137Z,13.01
2023-03-10T14:49:24.735Z,12.89
2023-03-10T14:51:51.638Z,12.89
2023-03-10T14:54:22.842Z,12.75
2023-03-10T14:56:58.939Z,12.59
2023-03-10T14:59:27.737Z,12.61
2023-03-10T15:01:55.561Z,12.63
2023-03-10T15:04:22.350Z,12.49
2023-03-10T15:06:48.991Z,12.48
2023-03-10T15:09:15.490Z,12.45
2023-03-10T15:11:42.094Z,12.44
2023-03-10T15:14:16.272Z,12.48
2023-03-10T15:16:42.811Z,12.40
2023-03-10T15:19:16.837Z,12.37
2023-03-10T15:21:43.571Z,12.32
2023-03-10T15:24:10.181Z,12.35
2023-03-10T15:26:36.749Z,12.35
2023-03-10T15:29:03.269Z,12.33
2023-03-10T15:31:29.831Z,12.27
2023-03-10T15:33:56.332Z,12.27
2023-03-10T15:36:23.045Z,12.26
2023-03-10T15:38:49.579Z,12.24
2023-03-10T15:41:17.155Z,12.18
2023-03-10T15:43:43.650Z,12.15
2023-03-10T15:46:10.207Z,12.14
2023-03-10T15:48:36.800Z,12.10
2023-03-10T15:51:09.603Z,12.08
2023-03-10T15:53:36.909Z,12.05
2023-03-10T15:56:07.562Z,12.03
2023-03-10T15:58:34.545Z,11.95
2023-03-10T16:01:05.944Z,11.90
2023-03-10T16:03:38.600Z,11.84
2023-03-10T16:06:05.721Z,11.80
2023-03-10T16:08:37.235Z,11.72
2023-03-10T16:11:05.247Z,11.70
2023-03-10T16:13:33.889Z,11.69
2023-03-10T16:16:04.210Z,11.67
2023-03-10T16:18:30.671Z,11.67
2023-03-10T16:20:58.844Z,11.63
2023-03-10T16:23:26.140Z,11.60
2023-03-10T16:26:11.226Z,11.55
2023-03-10T16:28:39.068Z,11.50
2023-03-10T16:31:06.333Z,11.48
2023-03-10T16:33:33.318Z,11.41
2023-03-10T16:36:00.778Z,11.37
2023-03-10T16:38:27.728Z,11.30
2023-03-10T16:40:54.577Z,11.26
2023-03-10T16:43:21.799Z,11.20
2023-03-10T16:45:50.988Z,11.14
2023-03-10T16:48:20.949Z,11.09
2023-03-10T16:50:47.887Z,10.99
2023-03-10T16:53:16.644Z,10.91
2023-03-10T16:55:44.178Z,10.79
2023-03-10T16:58:10.908Z,10.77
2023-03-10T17:00:38.057Z,10.68
2023-03-10T17:03:04.581Z,10.54
2023-03-10T17:05:31.147Z,10.50
2023-03-10T17:08:02.445Z,10.52
2023-03-10T17:10:29.738Z,10.50
2023-03-10T17:12:56.835Z,10.45
2023-03-10T17:15:23.741Z,10.40
2023-03-10T17:17:50.393Z,10.33
2023-03-10T17:20:18.564Z,10.28
2023-03-10T17:22:45.098Z,10.28
2023-03-10T17:25:13.013Z,10.27
2023-03-10T17:27:40.278Z,10.26
2023-03-10T17:30:08.613Z,10.18
2023-03-10T17:32:35.187Z,10.18
2023-03-10T17:35:01.716Z,10.15
2023-03-10T17:37:28.229Z,10.17
2023-03-10T17:39:54.718Z,10.11
2023-03-10T17:42:22.510Z,10.03
2023-03-10T17:44:49.024Z,10.04
2023-03-10T17:47:15.518Z,9.98
2023-03-10T17:49:42.093Z,10.01
2023-03-10T17:52:08.635Z,9.91
2023-03-10T17:54:35.339Z,9.86
2023-03-10T17:57:01.949Z,9.78
2023-03-10T17:59:28.806Z,9.70
2023-03-10T18:01:55.405Z,9.59
2023-03-10T18:04:22.074Z,9.65
2023-03-10T18:06:48.630Z,9.67
2023-03-10T18:09:16.283Z,9.72
2023-03-10T18:11:42.841Z,9.72
2023-03-10T18:14:09.527Z,9.76
2023-03-10T18:16:37.852Z,9.80
2023-03-10T18:19:04.577Z,9.84
2023-03-10T18:21:31.149Z,9.82
2023-03-10T18:23:57.707Z,9.73
2023-03-10T18:26:25.595Z,9.73
2023-03-10T18:28:52.055Z,9.74
2023-03-10T18:31:26.897Z,9.69
2023-03-10T18:33:53.804Z,9.63
2023-03-10T18:36:20.769Z,9.61
2023-03-10T18:38:47.972Z,9.58
2023-03-10T18:41:17.283Z,9.50
2023-03-10T18:43:43.916Z,9.47
2023-03-10T18:46:10.447Z,9.43
2023-03-10T18:48:36.961Z,9.37
2023-03-10T18:51:03.569Z,9.29
2023-03-10T18:53:31.468Z,9.25
2023-03-10T18:55:58.842Z,9.24
2023-03-10T18:58:25.409Z,9.24
2023-03-10T19:00:52.102Z,9.21
2023-03-10T19:03:19.345Z,9.18
2023-03-10T19:05:46.525Z,9.16
2023-03-10T19:08:13.387Z,9.14
2023-03-10T19:10:40.377Z,9.14
2023-03-10T19:13:08.048Z,9.10
2023-03-10T19:15:36.589Z,9.08
2023-03-10T19:18:03.684Z,9.05
2023-03-10T19:20:30.319Z,9.01
2023-03-10T19:22:57.630Z,8.95
2023-03-10T19:25:24.757Z,8.94
2023-03-10T19:27:52.074Z,8.92
2023-03-10T19:30:20.567Z,8.90
2023-03-10T19:32:47.759Z,8.88
2023-03-10T19:35:15.333Z,8.86
2023-03-10T19:37:43.790Z,8.85
2023-03-10T19:40:17.828Z,8.80
2023-03-10T19:42:45.001Z,8.76
2023-03-10T19:45:12.604Z,8.73
2023-03-10T19:47:39.507Z,8.69
2023-03-10T19:50:06.792Z,8.62
2023-03-10T19:52:33.469Z,8.58
2023-03-10T19:55:00.625Z,8.53
2023-03-10T19:57:27.963Z,8.45
2023-03-10T19:59:55.329Z,8.40
2023-03-10T20:02:22.246Z,8.31
2023-03-10T20:04:50.505Z,8.30
2023-03-10T20:07:18.123Z,8.31
2023-03-10T20:09:48.252Z,8.33
2023-03-10T20:12:14.949Z,8.35
2023-03-10T20:14:41.507Z,8.36
2023-03-10T20:17:09.298Z,8.34
2023-03-10T20:19:35.798Z,8.32
2023-03-10T20:22:02.356Z,8.32
2023-03-10T20:24:29.118Z,8.22
2023-03-10T20:26:58.427Z,8.20
2023-03-10T20:29:25.012Z,8.27
2023-03-10T20:31:51.522Z,8.29
2023-03-10T20:34:21.522Z,8.29
2023-03-10T20:36:48.653Z,8.36
2023-03-10T20:39:15.140Z,8.40
2023-03-10T20:41:44.490Z,8.46
2023-03-10T20:44:14.166Z,8.50
2023-03-10T20:46:41.680Z,8.55
2023-03-10T20:49:08.169Z,8.58
2023-03-10T20:51:34.713Z,8.60
2023-03-10T20:54:01.191Z,8.60
2023-03-10T20:56:29.362Z,8.63
2023-03-10T20:58:59.840Z,8.58
2023-03-10T21:01:26.609Z,8.52
2023-03-10T21:03:56.593Z,8.53
2023-03-10T21:06:23.904Z,8.54
2023-03-10T21:08:50.421Z,8.55
2023-03-10T21:11:17.947Z,8.56
2023-03-10T21:13:44.557Z,8.54
2023-03-10T21:16:11.797Z,8.54
2023-03-10T21:18:38.519Z,8.53
2023-03-10T21:21:09.777Z,8.53
2023-03-10T21:23:37.352Z,8.54
2023-03-10T21:26:09.256Z,8.57
2023-03-10T21:28:35.738Z,8.57
2023-03-10T21:31:02.238Z,8.56
2023-03-10T21:33:28.730Z,8.50
2023-03-10T21:35:55.287Z,8.50
2023-03-10T21:38:21.815Z,8.52
2023-03-10T21:40:48.425Z,8.43
2023-03-10T21:43:14.862Z,8.39
2023-03-10T21:45:41.375Z,8.41
2023-03-10T21:48:08.400Z,8.35
2023-03-10T21:50:34.856Z,8.34
2023-03-10T21:53:01.376Z,8.35
2023-03-10T21:55:29.467Z,8.38
2023-03-10T21:57:55.954Z,8.42
2023-03-10T22:00:24.031Z,8.43
2023-03-10T22:02:51.288Z,8.40
2023-03-10T22:05:18.221Z,8.39
2023-03-10T22:07:44.985Z,8.35
2023-03-10T22:10:12.444Z,8.31
2023-03-10T22:12:39.002Z,8.28
2023-03-10T22:15:06.510Z,8.23
2023-03-10T22:17:33.293Z,8.19
2023-03-10T22:20:01.030Z,8.17
2023-03-10T22:22:27.482Z,8.13
2023-03-10T22:24:53.935Z,8.09
2023-03-10T22:27:20.368Z,8.06
2023-03-10T22:29:46.816Z,8.03
2023-03-10T22:32:13.401Z,8.01
2023-03-10T22:34:39.917Z,7.98
2023-03-10T22:37:06.401Z,7.95
2023-03-10T22:39:32.959Z,7.92
2023-03-10T22:41:59.460Z,7.90
2023-03-10T22:44:26.145Z,7.89
2023-03-10T22:46:52.659Z,7.86
2023-03-10T22:49:19.511Z,7.83
2023-03-10T22:51:45.954Z,7.83
2023-03-10T22:54:12.458Z,7.83
2023-03-10T22:56:38.971Z,7.81
2023-03-10T22:59:05.992Z,7.79
2023-03-10T23:01:32.560Z,7.77
2023-03-10T23:03:59.322Z,7.76
2023-03-10T23:06:29.137Z,7.73
2023-03-10T23:08:56.240Z,7.70
2023-03-10T23:11:23.028Z,7.67
2023-03-10T23:13:49.778Z,7.67
2023-03-10T23:16:18.215Z,7.65
2023-03-10T23:18:44.715Z,7.62
2023-03-10T23:21:11.384Z,7.59
2023-03-10T23:23:39.273Z,7.59
2023-03-10T23:26:05.774Z,7.33
2023-03-10T23:28:32.256Z,7.22
2023-03-10T23:31:00.453Z,7.27
2023-03-10T23:33:27.051Z,7.26
2023-03-10T23:35:56.494Z,7.26
2023-03-10T23:38:23.993Z,7.32
2023-03-10T23:40:51.284Z,7.36
2023-03-10T23:43:17.716Z,7.41
2023-03-10T23:45:44.582Z,7.45
2023-03-10T23:48:13.198Z,7.48
2023-03-10T23:50:41.996Z,7.34
2023-03-10T23:53:09.598Z,7.32
2023-03-10T23:55:38.169Z,7.34
2023-03-10T23:58:05.097Z,7.36
